Tiempo atmosférico en la estación meteorológica de Alcala de Henares, Madrid (605 m.)



Fecha
DESCASC
Temp. máxima en grados centígrados (hora)
DESCASC
Temp. mínima en grados centígrados (hora)
DESCASC
Temp. media en grados centígrados
DESCASC
Racha de viento máxima en m/sg (hora)
DESCASC
Velocidad máxima media en intervalos de 10 minutos(hora)
DESCASC
Precipitaciones diarias en mm
DESCASC
Precipitaciones de 00:00 a 06:00 en mm
DESCASC
Precipitaciones de 06:00 a 12:00 en mm
DESCASC
Precipitaciones de 12:00 a 18:00 en mm
DESCASC
Precipitaciones de 18:00 a 24:00 en mm
DESCASC
06-12-2018 18.3 (15:40) 0.9 (08:30) 9.6 4.17 (01:40) 2.78 (01:40) 0 0 0 0 0
05-12-2018 18.8 (16:20) 2.1 (06:40) 10.4 3.33 (11:30) 2.5 (23:00) 0.2 0 0.2 0 0
04-12-2018 18.1 (16:40) -0.3 (06:00) 8.9 4.72 (09:40) 3.06 (09:50) 0 0 0 0 0
03-12-2018 8.1 (15:50) 1.6 (00:00) 4.9 2.5 (15:20) 1.39 (08:40) 0 0 0 0 0
02-12-2018 9 (14:10) 0.9 (00:00) 4.9 3.61 (14:30) 2.5 (14:30) 0 0 0 0 0
01-12-2018 11.3 (15:50) -0.6 (-00:0) 5.4 4.72 (15:30) 2.78 (14:20) 0 0 0 0 0
30-11-2018 12.3 (14:30) 1.1 (00:00) 6.7 7.78 (15:10) 4.17 (14:50) 1 1 0 0 0
29-11-2018 14.1 (15:40) -0.7 (-00:0) 6.7 3.89 (10:10) 2.5 (10:20) 1.6 0 0.2 0 1.4
28-11-2018 12.8 (15:20) -0.8 (-00:0) 6 3.33 (14:40) 2.22 (23:30) 0 0 0 0 0
27-11-2018 12.7 (15:00) 1.3 (00:00) 7 6.67 (14:30) 3.33 (14:30) 0 0 0 0 0
26-11-2018 12 (15:20) 4.5 (21:00) 8.3 15 (04:10) 9.72 (04:30) 3 3 0 0 0
25-11-2018 14.6 (16:30) 5.1 (00:00) 9.9 9.17 (13:50) 6.11 (14:10) 8.6 1.4 0.4 0 6.8
24-11-2018 10 (15:40) 0 (00:00) 5 3.89 (14:30) 2.5 (14:40) 0 0 0 0 0
23-11-2018 12.8 (14:00) 4.5 (00:00) 8.7 8.06 (13:30) 5 (14:10) 4.4 2 2.4 0 0
22-11-2018 12.1 (14:50) 5.2 (00:00) 8.7 6.11 (23:50) 3.89 (22:50) 0.2 0.2 0 0 0
21-11-2018 13.1 (14:10) 5.2 (00:00) 9.2 10.28 (11:00) 6.11 (05:50) 1.2 0 0 1.2 0
20-11-2018 12.2 (15:10) 8.4 (00:00) 10.3 12.22 (11:50) 7.5 (17:20) 6.6 0.6 2 4 0
19-11-2018 13.8 (14:20) 8.4 (00:00) 11.1 6.67 (17:00) 4.44 (17:00) 1.6 0.8 0.8 0 0
18-11-2018 15.7 (13:10) 7 (00:00) 11.3 8.89 (13:20) 5 (13:20) 3.8 0 0 0.8 3
17-11-2018 15.9 (14:50) 6.4 (00:00) 11.1 4.72 (08:10) 2.78 (09:40) 0 0 0 0 0
16-11-2018 17.6 (14:40) 10.5 (00:00) 14.1 6.94 (14:10) 4.17 (14:10) 0 0 0 0 0
15-11-2018 18.2 (16:00) 8.9 (00:00) 13.6 5.56 (16:40) 3.06 (00:30) 0 0 0 0 0
14-11-2018 17.8 (15:20) 6.4 (00:00) 12.1 5.28 (10:20) 3.89 (10:20) 0.4 0 0 0 0.4
13-11-2018 19.4 (16:30) 5.1 (00:00) 12.2 3.89 (14:00) 2.22 (13:00) 0.2 0 0 0.2 0
12-11-2018 14.8 (14:50) 9.1 (00:00) 12 8.89 (00:30) 4.72 (02:20) 0.2 0 0.2 0 0
11-11-2018 16.9 (13:00) 12.3 (00:00) 14.6 10 (04:10) 5.28 (06:00) 0 0 0 0 0
10-11-2018 13.6 (13:10) 9.7 (00:00) 11.7 11.39 (17:20) 6.39 (15:10) 0.2 0 0 0 0.2
09-11-2018 14.1 (15:50) 4.1 (00:00) 9.1 9.17 (15:20) 5.83 (15:20) 0 0 0 0 0

Gráficas

Temp. máximas Temp. mínimas Temp. medias Precipitaciones Rachas de viento máximas Velocidades máximas media en intervalos de 10 minutos

Datos horarios

Fecha y hora oficial Temperatura (ºC) Velocidad del viento (km/h) Dirección del viento Racha (km/h) Dirección de racha Precipitación (mm) Presión (hPa) Tendencia (hPa) Humedad (%)
2018-12-08 23:00:00 3.1 4 Este 6 Este 0 -- -- 92
2018-12-08 22:00:00 3.6 0 Calma 4 Este 0 -- -- 90
2018-12-08 21:00:00 4.7 5 Nordeste 5 Nordeste 0 -- -- 89
2018-12-08 20:00:00 6.3 2 Nordeste 3 Nordeste 0 -- -- 84
2018-12-08 19:00:00 8.3 3 Nordeste 5 Nordeste 0 -- -- 78
2018-12-08 18:00:00 12.4 0 Calma 6 Sudeste 0 -- -- 66
2018-12-08 17:00:00 16 0 Calma 6 Sudoeste 0 -- -- 55
2018-12-08 16:00:00 14.9 3 Oeste 6 Norte 0 -- -- 58
2018-12-08 15:00:00 14.9 0 Calma 8 Oeste 0 -- -- 57
2018-12-08 14:00:00 13 2 Sur 6 Sudeste 0 -- -- 65
2018-12-08 13:00:00 10.8 0 Calma 11 Sudoeste 0 -- -- 74
2018-12-08 12:00:00 8.1 5 Oeste 8 Oeste 0 -- -- 98
2018-12-08 11:00:00 4.7 4 Oeste 11 Oeste 0 -- -- 99
2018-12-08 10:00:00 2.9 6 Oeste 13 Oeste 0.2 -- -- 99
2018-12-08 09:00:00 1.1 5 Oeste 8 Oeste 0 -- -- 99
2018-12-08 08:00:00 0.7 3 Este 14 Este 0 -- -- 97
2018-12-08 07:00:00 -0.2 3 Sudeste 9 Este 0 -- -- 97
2018-12-08 06:00:00 -0.2 0 Calma 0 Calma 0 -- -- 97
2018-12-08 05:00:00 0.3 0 Calma 5 Noroeste 0 -- -- 97
2018-12-08 04:00:00 0.6 0 Calma 3 Norte 0 -- -- 96
2018-12-08 03:00:00 1 0 Calma 6 Nordeste 0 -- -- 96
2018-12-08 02:00:00 2 5 Nordeste 8 Nordeste 0 -- -- 97
2018-12-08 01:00:00 1.7 0 Calma 4 Nordeste 0 -- -- 95
2018-12-08 00:00:00 2.2 0 Calma 5 Sudeste 0 -- -- 95
2018-12-07 23:00:00 2.9 0 Calma 5 Norte 0 -- -- 94
2018-12-07 22:00:00 3.9 3 Noroeste 5 Oeste 0 -- -- 94
2018-12-07 21:00:00 4.6 2 Noroeste 8 Este 0 -- -- 92
2018-12-07 20:00:00 5.8 4 Nordeste 8 Nordeste 0 -- -- 91
2018-12-07 19:00:00 7.3 0 Calma 4 Noroeste 0 -- -- 85
2018-12-07 18:00:00 9.9 4 Noroeste 9 Oeste 0 -- -- 78
2018-12-07 17:00:00 11.9 4 Oeste 14 Oeste 0 -- -- 73
2018-12-07 16:00:00 11.7 10 Oeste 16 Oeste 0 -- -- 75
2018-12-07 15:00:00 13.2 9 Oeste 15 Oeste 0 -- -- 71
2018-12-07 14:00:00 12.8 3 Oeste 12 Oeste 0 -- -- 71
2018-12-07 13:00:00 10.9 6 Oeste 12 Oeste 0 -- -- 77
2018-12-07 12:00:00 8.7 0 Calma 11 Este 0 -- -- 84
2018-12-07 11:00:00 5.5 9 Este 14 Este 0 -- -- 96
2018-12-07 10:00:00 3 6 Este 12 Nordeste 0 -- -- 98
2018-12-07 09:00:00 -0.1 5 Nordeste 6 Este 0 -- -- 98
2018-12-07 08:00:00 -0.3 2 Nordeste 8 Nordeste 0 -- -- 97
2018-12-07 07:00:00 0.2 4 Este 9 Este 0 -- -- 96
2018-12-07 06:00:00 0.7 2 Este 9 Este 0 -- -- 97
2018-12-07 05:00:00 1.4 3 Este 12 Nordeste 0 -- -- 97
2018-12-07 04:00:00 1.2 4 Nordeste 7 Este 0 -- -- 97
2018-12-07 03:00:00 1.9 5 Nordeste 7 Este 0 -- -- 96
2018-12-07 02:00:00 2.8 4 Nordeste 8 Nordeste 0 -- -- 96
2018-12-07 01:00:00 3 5 Este 8 Este 0 -- -- 95
2018-12-07 00:00:00 3.7 6 Este 9 Nordeste 0 -- -- 95
2018-12-06 23:00:00 4.2 4 Este 9 Este 0 -- -- 93
2018-12-06 22:00:00 5.2 6 Este 9 Nordeste 0 -- -- 93
2018-12-06 21:00:00 5.5 4 Sur 7 Sur 0 -- -- 89
2018-12-06 20:00:00 7.6 3 Nordeste 5 Nordeste 0 -- -- 85
2018-12-06 19:00:00 9.3 0 Calma 5 Sudeste 0 -- -- 79
2018-12-06 18:00:00 13.8 3 Sudoeste 10 Oeste 0 -- -- 67
2018-12-06 17:00:00 17.3 6 Oeste 12 Sudoeste 0 -- -- 58
2018-12-06 16:00:00 18.1 8 Oeste 13 Oeste 0 -- -- 55
2018-12-06 15:00:00 17.9 0 Calma 8 Nordeste 0 -- -- 57
2018-12-06 14:00:00 16.3 0 Calma 5 Sur 0 -- -- 64
2018-12-06 13:00:00 15 3 Sur 6 Sur 0 -- -- 66
2018-12-06 12:00:00 11.4 3 Nordeste 12 Este 0 -- -- 78
2018-12-06 11:00:00 8.2 8 Este 12 Este 0 -- -- 91
2018-12-06 10:00:00 4.9 6 Nordeste 9 Nordeste 0 -- -- 99
2018-12-06 09:00:00 1.5 3 Este 5 Nordeste 0 -- -- 98
2018-12-06 08:00:00 1.6 3 Este 9 Nordeste 0 -- -- 97
2018-12-06 07:00:00 1.7 6 Nordeste 9 Este 0 -- -- 97
2018-12-06 06:00:00 1.5 3 Este 7 Este 0 -- -- 96
2018-12-06 05:00:00 1.6 0 Calma 6 Nordeste 0 -- -- 95
2018-12-06 04:00:00 2.1 3 Este 5 Este 0 -- -- 95
2018-12-06 03:00:00 3.8 0 Calma 6 Nordeste 0 -- -- 94
2018-12-06 02:00:00 5.3 4 Este 15 Este 0 -- -- 94
2018-12-06 01:00:00 5.6 5 Este 13 Este 0 -- -- 95
2018-12-06 00:00:00 5.5 7 Nordeste 10 Nordeste 0 -- -- 95
2018-12-05 23:00:00 5.8 9 Nordeste 11 Nordeste 0 -- -- 94
2018-12-05 22:00:00 5.8 4 Este 8 Nordeste 0 -- -- 91
2018-12-05 21:00:00 7.1 5 Este 9 Este 0 -- -- 89
2018-12-05 20:00:00 8.5 4 Oeste 8 Oeste 0 -- -- 89
2018-12-05 19:00:00 10.1 0 Calma 8 Sur 0 -- -- 82
2018-12-05 18:00:00 14.6 4 Oeste 9 Noroeste 0 -- -- 67
2018-12-05 17:00:00 18.5 4 Sudoeste 7 Sudoeste 0 -- -- 57
2018-12-05 16:00:00 18.2 3 Sudeste 6 Este 0 -- -- 60
2018-12-05 15:00:00 17.8 3 Sur 9 Noroeste 0 -- -- 60
2018-12-05 14:00:00 16.3 0 Calma 8 Noroeste 0 -- -- 65
2018-12-05 13:00:00 13.6 5 Este 9 Este 0 -- -- 74
2018-12-05 12:00:00 11.3 6 Este 12 Nordeste 0 -- -- 82
2018-12-05 11:00:00 8.4 6 Este 10 Este 0 -- -- 98
2018-12-05 10:00:00 6 5 Este 11 Este 0 -- -- 99
2018-12-05 09:00:00 3.1 5 Este 10 Este 0.2 -- -- 99
2018-12-05 08:00:00 3 6 Nordeste 9 Nordeste 0 -- -- 98
2018-12-05 07:00:00 2.5 5 Este 7 Este 0 -- -- 99
2018-12-05 06:00:00 3 3 Este 9 Nordeste 0 -- -- 98
2018-12-05 05:00:00 3.8 4 Este 9 Este 0 -- -- 98
2018-12-05 04:00:00 4.1 5 Nordeste 8 Este 0 -- -- 97
2018-12-05 03:00:00 4.8 5 Este 12 Este 0 -- -- 97
2018-12-05 02:00:00 4.4 6 Este 9 Este 0 -- -- 98
2018-12-05 01:00:00 4.6 4 Este 6 Este 0 -- -- 97
2018-12-05 00:00:00 4.9 5 Este 6 Este 0 -- -- 96
2018-12-04 23:00:00 5.5 4 Este 7 Este 0 -- -- 95
2018-12-04 22:00:00 5.8 4 Este 7 Nordeste 0 -- -- 94
2018-12-04 21:00:00 6.8 5 Nordeste 8 Nordeste 0 -- -- 92
2018-12-04 20:00:00 8.3 2 Este 6 Nordeste 0 -- -- 90
2018-12-04 19:00:00 10.7 0 Calma 3 Nordeste 0 -- -- 82
2018-12-04 18:00:00 14.5 0 Calma 4 Sudoeste 0 -- -- 72
2018-12-04 17:00:00 17.8 0 Calma 3 Sudoeste 0 -- -- 63
2018-12-04 16:00:00 17.3 3 Oeste 13 Oeste 0 -- -- 66
2018-12-04 15:00:00 16.6 6 Oeste 10 Sudoeste 0 -- -- 69
2018-12-04 14:00:00 14.9 0 Calma 7 Este 0 -- -- 76
2018-12-04 13:00:00 11.3 4 Nordeste 9 Nordeste 0 -- -- 99
2018-12-04 12:00:00 8.8 9 Nordeste 14 Este 0 -- -- 99
2018-12-04 11:00:00 7.2 9 Este 15 Este 0 -- -- 99
2018-12-04 10:00:00 6 10 Este 17 Este 0 -- -- 99
2018-12-04 09:00:00 4.9 9 Este 17 Este 0 -- -- 99
2018-12-04 08:00:00 1 3 Este 5 Este 0 -- -- 98
2018-12-04 07:00:00 0.3 0 Calma 4 Nordeste 0 -- -- 98
2018-12-04 06:00:00 -0.3 0 Calma 3 Nordeste 0 -- -- 97
2018-12-04 05:00:00 -0.1 0 Calma 3 Este 0 -- -- 97
2018-12-04 04:00:00 0 0 Calma 2 Noroeste 0 -- -- 97
2018-12-04 03:00:00 0.2 0 Calma 0 Calma 0 -- -- 97
2018-12-04 02:00:00 0.7 0 Calma 4 Sur 0 -- -- 96
2018-12-04 01:00:00 1.2 0 Calma 6 Nordeste 0 -- -- 96
2018-12-04 00:00:00 1.6 2 Nordeste -- -- 0 -- -- 96
2018-12-03 23:00:00 2.1 0 Calma 4 Nordeste 0 -- -- 95
2018-12-03 22:00:00 2.4 0 Calma 2 Nordeste 0 -- -- 94
2018-12-03 21:00:00 3 0 Calma 3 Nordeste 0 -- -- 94
2018-12-03 20:00:00 3.8 0 Calma 3 Sudeste 0 -- -- 93
2018-12-03 19:00:00 4.8 0 Calma 4 Sur 0 -- -- 90
2018-12-03 18:00:00 6.4 0 Calma 4 Norte 0 -- -- 87
2018-12-03 17:00:00 7.7 0 Calma 6 Norte 0 -- -- 84
2018-12-03 16:00:00 8.1 3 Noroeste 9 Sudoeste 0 -- -- 82
2018-12-03 15:00:00 7.7 2 Sur 7 Sudeste 0 -- -- 85
2018-12-03 14:00:00 7.1 3 Este 8 Noroeste 0 -- -- 86
2018-12-03 13:00:00 6.7 2 Nordeste 8 Norte 0 -- -- 89
2018-12-03 12:00:00 6.2 4 Nordeste 8 Nordeste 0 -- -- 91
2018-12-03 11:00:00 5.9 4 Noroeste 9 Oeste 0 -- -- 92
2018-12-03 10:00:00 5.6 0 Calma 8 Este 0 -- -- 92
2018-12-03 09:00:00 5.8 3 Nordeste 9 Este 0 -- -- 92
2018-12-03 08:00:00 6 0 Calma 6 Este 0 -- -- 92
2018-12-03 07:00:00 6.1 3 Sudeste 5 Sudeste 0 -- -- 92
2018-12-03 06:00:00 6.2 2 Este 7 Norte 0 -- -- 92
2018-12-03 05:00:00 6.3 3 Nordeste 5 Nordeste 0 -- -- 92
2018-12-03 04:00:00 6.5 0 Calma 5 Norte 0 -- -- 92
2018-12-03 03:00:00 6.5 4 Norte 9 Norte 0 -- -- 92
2018-12-03 02:00:00 6.6 5 Norte 9 Norte 0 -- -- 94
2018-12-03 01:00:00 6.5 3 Este 5 Este 0 -- -- 95
2018-12-03 00:00:00 6.2 2 Este 4 Este 0 -- -- 95
2018-12-02 23:00:00 6.2 2 Este 4 Este 0 -- -- 94
2018-12-02 22:00:00 5.9 3 Este 6 Este 0 -- -- 94
2018-12-02 21:00:00 5.9 0 Calma 5 Nordeste 0 -- -- 92
2018-12-02 20:00:00 7 0 Calma 2 Nordeste 0 -- -- 89
2018-12-02 19:00:00 7.6 0 Calma 10 Oeste 0 -- -- 89
2018-12-02 18:00:00 7.8 7 Oeste 11 Noroeste 0 -- -- 88
2018-12-02 17:00:00 8.5 4 Noroeste 10 Noroeste 0 -- -- 86
2018-12-02 16:00:00 8.8 5 Oeste 9 Oeste 0 -- -- 86
2018-12-02 15:00:00 8.8 7 Oeste 13 Oeste 0 -- -- 86
2018-12-02 14:00:00 8.8 6 Oeste 10 Oeste 0 -- -- 87
2018-12-02 13:00:00 8 3 Oeste 6 Oeste 0 -- -- 90
2018-12-02 12:00:00 7.1 3 Noroeste 8 Noroeste 0 -- -- 95
2018-12-02 11:00:00 6.1 6 Este 9 Este 0 -- -- 97
2018-12-02 10:00:00 4.9 3 Nordeste 9 Nordeste 0 -- -- 98
2018-12-02 09:00:00 2.3 4 Este 5 Nordeste 0 -- -- 98
2018-12-02 08:00:00 1 0 Calma 5 Nordeste 0 -- -- 96
2018-12-02 07:00:00 1.1 4 Este 6 Este 0 -- -- 96
2018-12-02 06:00:00 1.6 5 Nordeste 7 Nordeste 0 -- -- 96
2018-12-02 05:00:00 1.9 3 Este 7 Nordeste 0 -- -- 95
2018-12-02 04:00:00 2.2 4 Este 6 Nordeste 0 -- -- 95
2018-12-02 03:00:00 2.9 3 Nordeste 4 Nordeste 0 -- -- 94
2018-12-02 02:00:00 4 2 Este 6 Nordeste 0 -- -- 94
2018-12-02 01:00:00 4.5 4 Este 6 Nordeste 0 -- -- 94
2018-12-02 00:00:00 4 3 Este 4 Nordeste 0 -- -- 93
2018-12-01 23:00:00 4.7 2 Norte 6 Este 0 -- -- 93
2018-12-01 22:00:00 4.9 5 Nordeste 8 Nordeste 0 -- -- 92
2018-12-01 21:00:00 5.3 0 Calma 5 Este 0 -- -- 90
2018-12-01 20:00:00 6.4 4 Noroeste 6 Noroeste 0 -- -- 87
2018-12-01 19:00:00 7.6 3 Sur 9 Sur 0 -- -- 82
2018-12-01 18:00:00 8.7 4 Sur 9 Sudoeste 0 -- -- 78
2018-12-01 17:00:00 10.5 6 Sudoeste 15 Sudoeste 0 -- -- 67
2018-12-01 16:00:00 11.3 8 Sudoeste 17 Sudoeste 0 -- -- 65
2018-12-01 15:00:00 10.7 10 Oeste 15 Oeste 0 -- -- 68
2018-12-01 14:00:00 9.6 3 Oeste 9 Oeste 0 -- -- 73
2018-12-01 13:00:00 7.4 3 Nordeste 9 Este 0 -- -- 79
2018-12-01 12:00:00 5.8 3 Sudeste 6 Sudeste 0 -- -- 86
2018-12-01 11:00:00 4 0 Calma 7 Este 0 -- -- 95
2018-12-01 10:00:00 2.4 2 Nordeste 5 Nordeste 0 -- -- 97
2018-12-01 09:00:00 0.7 2 Sudeste 6 Nordeste 0 -- -- 97
2018-12-01 08:00:00 0.2 4 Nordeste 10 Este 0 -- -- 97
2018-12-01 07:00:00 -0.3 6 Este 9 Este 0 -- -- 96
2018-12-01 06:00:00 -0.1 3 Este 9 Este 0 -- -- 96
2018-12-01 05:00:00 -0.1 3 Este 5 Nordeste 0 -- -- 95
2018-12-01 04:00:00 -0.4 0 Calma 6 Sudeste 0 -- -- 95
2018-12-01 03:00:00 -0.4 3 Oeste 5 Oeste 0 -- -- 94
2018-12-01 02:00:00 0.2 4 Nordeste 6 Este 0 -- -- 94
2018-12-01 01:00:00 0.8 4 Este 9 Este 0 -- -- 92
2018-12-01 00:00:00 1.2 3 Nordeste 6 Nordeste 0 -- -- 91
2018-11-30 23:00:00 1.8 2 Sudeste 7 Noroeste 0 -- -- 89
2018-11-30 22:00:00 2.6 3 Nordeste 10 Sur 0 -- -- 89
2018-11-30 21:00:00 3.1 2 Oeste 8 Sur 0 -- -- 85
2018-11-30 20:00:00 5.2 0 Calma 11 Este 0 -- -- 77
2018-11-30 19:00:00 7.1 5 Este 12 Norte 0 -- -- 69
2018-11-30 18:00:00 9.4 7 Norte 17 Norte 0 -- -- 64
2018-11-30 17:00:00 11.6 12 Norte 23 Norte 0 -- -- 56
2018-11-30 16:00:00 12.3 13 Norte 28 Norte 0 -- -- 55
2018-11-30 15:00:00 12 15 Norte 24 Norte 0 -- -- 56
2018-11-30 14:00:00 11.6 8 Oeste 15 Oeste 0 -- -- 67
2018-11-30 13:00:00 10.5 6 Oeste 15 Oeste 0 -- -- 71
2018-11-30 12:00:00 8.7 5 Oeste 10 Oeste 0 -- -- 93
2018-11-30 11:00:00 6.2 3 Sur 7 Sudeste 0 -- -- 97
2018-11-30 10:00:00 5.4 3 Norte 8 Este 0 -- -- 97
2018-11-30 09:00:00 4 4 Nordeste 6 Este 0 -- -- 97
2018-11-30 08:00:00 4.8 0 Calma 3 Este 0 -- -- 94
2018-11-30 07:00:00 6.4 0 Calma 2 Este 0 -- -- 96
2018-11-30 06:00:00 6.5 0 Calma 4 Nordeste 0 -- -- 95
2018-11-30 05:00:00 6.4 2 Nordeste 4 Este 0.2 -- -- 95
2018-11-30 04:00:00 6.6 3 Sudoeste 5 Sur 0 -- -- 95
2018-11-30 03:00:00 6.7 2 Este 4 Este 0.6 -- -- 94
2018-11-30 02:00:00 6.7 2 Noroeste 5 Oeste 0.2 -- -- 94
2018-11-30 01:00:00 6.6 2 Sudoeste 4 Sudoeste 0 -- -- 93
2018-11-30 00:00:00 6.6 3 Sur 7 Sudoeste 0.4 -- -- 92
2018-11-29 23:00:00 6.8 2 Este 5 Sur 1 -- -- 90
2018-11-29 22:00:00 7.5 4 Sudoeste 14 Norte 0 -- -- 81
2018-11-29 21:00:00 6.4 0 Calma 8 Sudeste 0 -- -- 84
2018-11-29 20:00:00 7.1 2 Noroeste 7 Noroeste 0 -- -- 82
2018-11-29 19:00:00 8.3 2 Oeste 5 Oeste 0 -- -- 79
2018-11-29 18:00:00 10.2 3 Oeste 8 Sudoeste 0 -- -- 71
2018-11-29 17:00:00 12.1 4 Sudoeste 6 Sudoeste 0 -- -- 64
2018-11-29 16:00:00 13.8 5 Sudoeste 12 Oeste 0 -- -- 55
2018-11-29 15:00:00 13.7 5 Noroeste 9 Oeste 0 -- -- 57
2018-11-29 14:00:00 12.2 2 Norte 6 Este 0 -- -- 62
2018-11-29 13:00:00 10.4 2 Nordeste 10 Este 0 -- -- 65
2018-11-29 12:00:00 7.9 6 Este 10 Este 0 -- -- 77
2018-11-29 11:00:00 5.2 6 Este 14 Este 0 -- -- 89
2018-11-29 10:00:00 2.2 6 Este 10 Este 0.2 -- -- 97
2018-11-29 09:00:00 -0.1 4 Este 10 Este 0 -- -- 98
2018-11-29 08:00:00 -0.5 6 Este 12 Este 0 -- -- 97
2018-11-29 07:00:00 -0.2 5 Este 9 Este 0 -- -- 97
2018-11-29 06:00:00 -0.1 5 Este 9 Este 0 -- -- 97
2018-11-29 05:00:00 0.3 7 Este 12 Este 0 -- -- 96
2018-11-29 04:00:00 0.5 6 Este 9 Este 0 -- -- 96
2018-11-29 03:00:00 0.9 5 Este 10 Nordeste 0 -- -- 96
2018-11-29 02:00:00 1.6 7 Este 13 Este 0 -- -- 96
2018-11-29 01:00:00 1.2 6 Este 9 Este 0 -- -- 96
2018-11-29 00:00:00 1.8 0 Calma 9 Nordeste 0 -- -- 94
2018-11-28 23:00:00 2.2 4 Este 8 Nordeste 0 -- -- 94
2018-11-28 22:00:00 2.5 6 Nordeste 8 Este 0 -- -- 93
2018-11-28 21:00:00 3.1 4 Este 9 Nordeste 0 -- -- 91
2018-11-28 14:00:00 -- -- -- -- -- -- -- -- --
2018-11-28 13:00:00 10.2 2 Noroeste 8 Sudoeste 0 -- -- 74
2018-11-28 12:00:00 8.7 3 Este 9 Este 0 -- -- 78
2018-11-28 11:00:00 5.4 5 Este 10 Este 0 -- -- 93
2018-11-28 10:00:00 2.5 5 Este 10 Este 0 -- -- 98
2018-11-28 09:00:00 -0.2 4 Este 5 Este 0 -- -- 98
2018-11-28 08:00:00 -0.7 3 Este 5 Nordeste 0 -- -- 96
2018-11-28 07:00:00 0 3 Nordeste 11 Este 0 -- -- 96
2018-11-28 06:00:00 0.4 7 Nordeste 10 Nordeste 0 -- -- 97
2018-11-28 05:00:00 0.3 3 Este 9 Este 0 -- -- 96
2018-11-28 04:00:00 0.8 5 Este 8 Este 0 -- -- 96
2018-11-28 03:00:00 1 5 Nordeste 10 Este 0 -- -- 95
2018-11-28 02:00:00 1 5 Este 7 Este 0 -- -- 95
2018-11-28 01:00:00 1.4 3 Este 7 Nordeste 0 -- -- 94
2018-11-28 00:00:00 1.7 3 Este 5 Nordeste 0 -- -- 93
2018-11-27 23:00:00 2.2 2 Nordeste 5 Nordeste 0 -- -- 92
2018-11-27 22:00:00 2.9 2 Este 4 Este 0 -- -- 90
2018-11-27 21:00:00 4.2 4 Nordeste 8 Nordeste 0 -- -- 90
2018-11-27 20:00:00 5.6 4 Nordeste 5 Este 0 -- -- 88
2018-11-27 19:00:00 7.5 3 Sur 6 Sur 0 -- -- 78
2018-11-27 18:00:00 10.3 3 Sur 4 Sur 0 -- -- 72
2018-11-27 17:00:00 12 4 Sudeste 12 Oeste 0 -- -- 63
2018-11-27 16:00:00 12.5 5 Sudoeste 15 Sudoeste 0 -- -- 64
2018-11-27 15:00:00 12.7 8 Sudoeste 24 Oeste 0 -- -- 61
2018-11-27 14:00:00 12.3 7 Oeste 18 Oeste 0 -- -- 62
2018-11-27 13:00:00 11 6 Oeste 15 Oeste 0 -- -- 67
2018-11-27 12:00:00 9.6 7 Oeste 13 Oeste 0 -- -- 74
2018-11-27 11:00:00 7 2 Noroeste 5 Noroeste 0 -- -- 83
2018-11-27 10:00:00 4.5 0 Calma 3 Sudoeste 0 -- -- 97
2018-11-27 09:00:00 1.7 3 Sudoeste 7 Este 0 -- -- 96
2018-11-27 08:00:00 1.5 5 Este 9 Nordeste 0 -- -- 95
2018-11-27 07:00:00 1.5 3 Nordeste 6 Este 0 -- -- 95
2018-11-27 06:00:00 1.4 0 Calma 3 Este 0 -- -- 94
2018-11-27 05:00:00 1.8 2 Oeste 5 Sudoeste 0 -- -- 94
2018-11-27 04:00:00 1.9 2 Noroeste 3 Oeste 0 -- -- 92
2018-11-27 03:00:00 2.5 0 Calma 6 Oeste 0 -- -- 90
2018-11-27 02:00:00 3.5 0 Calma 6 Sudoeste 0 -- -- 86
2018-11-27 01:00:00 5.5 0 Calma 11 Oeste 0 -- -- 80
2018-11-27 00:00:00 7 6 Sudoeste 22 Norte 0 -- -- 73
2018-11-26 23:00:00 6.7 5 Sudoeste 12 Oeste 0 -- -- 76
2018-11-26 22:00:00 6.6 3 Sur 14 Norte 0 -- -- 77
2018-11-26 21:00:00 4.5 2 Noroeste 7 Noroeste 0 -- -- 86
2018-11-26 20:00:00 5.2 0 Calma 8 Sudoeste 0 -- -- 82
2018-11-26 19:00:00 7.3 0 Calma 9 Nordeste 0 -- -- 74
2018-11-26 18:00:00 10.3 5 Norte 20 Norte 0 -- -- 62
2018-11-26 17:00:00 11.3 10 Norte 23 Norte 0 -- -- 59
2018-11-26 16:00:00 12 9 Noroeste 30 Norte 0 -- -- 56
2018-11-26 15:00:00 11.5 13 Norte 33 Norte 0 -- -- 58
2018-11-26 14:00:00 11.6 19 Norte 38 Norte 0 -- -- 59
2018-11-26 13:00:00 10.8 21 Norte 37 Norte 0 -- -- 63
2018-11-26 12:00:00 10.9 9 Norte 22 Oeste 0 -- -- 68
2018-11-26 11:00:00 9.6 12 Oeste 19 Oeste 0 -- -- 72
2018-11-26 10:00:00 8.7 8 Oeste 21 Oeste 0 -- -- 75
2018-11-26 09:00:00 7.5 10 Oeste 17 Oeste 0 -- -- 77
2018-11-26 08:00:00 6.9 7 Oeste 24 Oeste 0 -- -- 74
2018-11-26 07:00:00 7.6 15 Oeste 42 Noroeste 0 -- -- 68
2018-11-26 06:00:00 7.4 24 Oeste 39 Oeste 0 -- -- 68
2018-11-26 05:00:00 7.3 24 Noroeste 54 Oeste 0 -- -- 71
2018-11-26 04:00:00 8.9 27 Oeste 48 Oeste 0 -- -- 75
2018-11-26 03:00:00 9.9 18 Oeste 29 Oeste 2.6 -- -- 97
2018-11-26 02:00:00 10.1 10 Sudoeste 24 Sudoeste 0.4 -- -- 96
2018-11-26 01:00:00 10.1 10 Sudoeste 22 Sudoeste 0 -- -- 96
2018-11-26 00:00:00 9.8 8 Sudoeste 19 Sudoeste 2.8 -- -- 95
2018-11-25 23:00:00 10.2 8 Sudoeste 17 Sudoeste 2.4 -- -- 94
2018-11-25 22:00:00 10.9 11 Oeste 22 Oeste 1.6 -- -- 93
2018-11-25 21:00:00 11.6 12 Sudoeste 31 Sudoeste 0 -- -- 89
2018-11-25 20:00:00 11.9 14 Sudoeste 24 Sudoeste 0 -- -- 88
2018-11-25 19:00:00 12.1 13 Sudoeste 24 Oeste 0 -- -- 86
2018-11-25 18:00:00 12.7 14 Sudoeste 28 Oeste 0 -- -- 82
2018-11-25 17:00:00 13.5 10 Sudoeste 26 Sudoeste 0 -- -- 81
2018-11-25 16:00:00 14.3 12 Oeste 25 Oeste 0 -- -- 79
2018-11-25 15:00:00 13.9 15 Oeste 33 Sudoeste 0 -- -- 81
2018-11-25 14:00:00 13.6 21 Sudoeste 33 Sudoeste 0 -- -- 87
2018-11-25 13:00:00 12.4 15 Sudoeste 32 Oeste 0 -- -- 91
2018-11-25 12:00:00 11.5 17 Oeste 30 Oeste 0 -- -- 96
2018-11-25 11:00:00 10.3 18 Sudoeste 32 Oeste 0 -- -- 98
2018-11-25 10:00:00 9.4 13 Sudoeste 21 Sudoeste 0.2 -- -- 98
2018-11-25 09:00:00 9 14 Sudoeste 21 Sudoeste 0 -- -- 98
2018-11-25 08:00:00 8.4 9 Oeste 15 Sudoeste 0.2 -- -- 98
2018-11-25 07:00:00 6.9 2 Este 6 Sudoeste 0 -- -- 97
2018-11-25 06:00:00 6.8 4 Sudoeste 9 Oeste 0.4 -- -- 96
2018-11-25 05:00:00 6.8 4 Oeste 8 Norte 0.6 -- -- 95
2018-11-25 04:00:00 7.2 3 Nordeste 10 Oeste 0.4 -- -- 93
2018-11-25 03:00:00 7.8 7 Sudoeste 19 Sudoeste 0 -- -- 88
2018-11-25 02:00:00 7.9 8 Sudoeste 14 Sur 0 -- -- 82
2018-11-25 01:00:00 6.3 6 Oeste 9 Sudoeste 0 -- -- 96
2018-11-25 00:00:00 5.1 0 Calma 4 Noroeste 0 -- -- 96
2018-11-24 23:00:00 4 0 Calma 3 Norte 0 -- -- 95
2018-11-24 22:00:00 3.6 3 Este 5 Noroeste 0 -- -- 94
2018-11-24 21:00:00 3.5 0 Calma 3 Noroeste 0 -- -- 92
2018-11-24 20:00:00 3.9 0 Calma 4 Sudoeste 0 -- -- 91
2018-11-24 19:00:00 5.1 0 Calma 4 Sudeste 0 -- -- 85
2018-11-24 18:00:00 7.8 0 Calma 3 Norte 0 -- -- 81
2018-11-24 17:00:00 9.3 0 Calma 6 Noroeste 0 -- -- 74
2018-11-24 16:00:00 9.9 2 Sur 12 Noroeste 0 -- -- 71
2018-11-24 15:00:00 8.4 7 Oeste 14 Noroeste 0 -- -- 80
2018-11-24 14:00:00 8.3 6 Noroeste 12 Noroeste 0 -- -- 82
2018-11-24 13:00:00 7.9 6 Noroeste 12 Oeste 0 -- -- 84
2018-11-24 12:00:00 6.8 5 Oeste 8 Oeste 0 -- -- 96
2018-11-24 11:00:00 4.9 3 Sur 4 Sur 0 -- -- 98
2018-11-24 10:00:00 3.8 3 Este 4 Este 0 -- -- 98
2018-11-24 09:00:00 1.2 0 Calma 4 Este 0 -- -- 98
2018-11-24 08:00:00 0.1 3 Sudeste 8 Este 0 -- -- 96
2018-11-24 07:00:00 0.2 5 Este 9 Nordeste 0 -- -- 96
2018-11-24 06:00:00 0.5 3 Nordeste 8 Este 0 -- -- 96
2018-11-24 05:00:00 0.8 7 Nordeste 8 Nordeste 0 -- -- 95
2018-11-24 04:00:00 1 3 Nordeste 9 Nordeste 0 -- -- 95
2018-11-24 03:00:00 1.8 4 Nordeste 6 Este 0 -- -- 94
2018-11-24 02:00:00 2.5 0 Calma -- -- 0 -- -- 92
2018-11-24 01:00:00 3.5 0 Calma 7 Sudoeste 0 -- -- 90
2018-11-24 00:00:00 4.5 3 Sudoeste 10 Sudoeste 0 -- -- 88
2018-11-23 23:00:00 5.1 6 Sudoeste 14 Sudoeste 0 -- -- 88
2018-11-23 22:00:00 5 5 Sudoeste 9 Sur 0 -- -- 87
2018-11-23 21:00:00 5.6 0 Calma 6 Oeste 0 -- -- 84
2018-11-23 20:00:00 6.6 4 Sudoeste 10 Sudoeste 0 -- -- 81
2018-11-23 19:00:00 8 6 Sudoeste 15 Sudoeste 0 -- -- 77
2018-11-23 18:00:00 9.5 8 Sudoeste 22 Sudoeste 0 -- -- 70
2018-11-23 17:00:00 11.5 13 Sudoeste 26 Sudoeste 0 -- -- 61
2018-11-23 16:00:00 12.2 16 Sudoeste 25 Sudoeste 0 -- -- 62
2018-11-23 15:00:00 12.3 15 Sudoeste 29 Sudoeste 0 -- -- 64
2018-11-23 14:00:00 12.8 15 Sudoeste 29 Sudoeste 0 -- -- 65
2018-11-23 13:00:00 10.9 12 Sudoeste 19 Sudoeste 0 -- -- 75
2018-11-23 12:00:00 10.9 9 Sudoeste 15 Sudoeste 0 -- -- 80
2018-11-23 11:00:00 8.4 0 Calma 7 Oeste 0 -- -- 88
2018-11-23 10:00:00 7 0 Calma 4 Sur 0 -- -- 92
2018-11-23 09:00:00 6.7 2 Sudeste 9 Sudeste 0.4 -- -- 92
2018-11-23 08:00:00 6.9 7 Este 17 Oeste 1 -- -- 91
2018-11-23 07:00:00 8.4 8 Oeste 13 Oeste 1 -- -- 94
2018-11-23 06:00:00 8.4 4 Oeste 10 Oeste 1.8 -- -- 93
2018-11-23 05:00:00 8.6 5 Oeste 11 Sudoeste 0.2 -- -- 89
2018-11-23 04:00:00 8.9 4 Sudoeste 8 Oeste 0 -- -- 86
2018-11-23 03:00:00 9.4 4 Sur 15 Sur 0 -- -- 82
2018-11-23 02:00:00 9.6 6 Sur 16 Sudeste 0 -- -- 80
2018-11-23 01:00:00 10 8 Sur 22 Sur 0 -- -- 77
2018-11-23 00:00:00 9.9 11 Sur 22 Sur 0 -- -- 78
2018-11-22 23:00:00 9.9 11 Sur 20 Sur 0 -- -- 79
2018-11-22 22:00:00 9.5 3 Sur 11 Sur 0 -- -- 81
2018-11-22 21:00:00 9.6 4 Sur 13 Sur 0 -- -- 81
2018-11-22 20:00:00 9.5 3 Sur 13 Sudoeste 0 -- -- 81
2018-11-22 19:00:00 9.6 7 Sur 12 Sur 0 -- -- 80
2018-11-22 18:00:00 10.1 4 Sur 10 Sur 0 -- -- 75
2018-11-22 17:00:00 11.3 4 Sudoeste 13 Sudoeste 0 -- -- 71
2018-11-22 16:00:00 11.7 5 Sudoeste 21 Sur 0 -- -- 70
2018-11-22 15:00:00 12 10 Sur 21 Sudoeste 0 -- -- 70
2018-11-22 14:00:00 11.2 3 Sudoeste 18 Sudoeste 0 -- -- 80
2018-11-22 13:00:00 11.1 10 Sudoeste 21 Sur 0 -- -- 78
2018-11-22 12:00:00 10.8 12 Sur 18 Sudeste 0 -- -- 82
2018-11-22 11:00:00 9 0 Calma 5 Este 0 -- -- 91
2018-11-22 10:00:00 7.2 5 Nordeste 6 Nordeste 0 -- -- 94
2018-11-22 09:00:00 6.5 0 Calma 8 Sur 0 -- -- 93
2018-11-22 08:00:00 6.3 5 Sur 10 Sur 0 -- -- 93
2018-11-22 07:00:00 5.9 2 Sudeste 8 Sudoeste 0 -- -- 92
2018-11-22 06:00:00 5.2 0 Calma 10 Sur 0 -- -- 91
2018-11-22 05:00:00 5.4 5 Sur 9 Sur 0 -- -- 91
2018-11-22 04:00:00 6 0 Calma 13 Sur 0 -- -- 89
2018-11-22 03:00:00 6.5 5 Sur 13 Sur 0 -- -- 94
2018-11-22 02:00:00 5.5 0 Calma 3 Sudeste 0 -- -- 92
2018-11-22 01:00:00 7.3 3 Norte 12 Sudoeste 0.2 -- -- 90
2018-11-22 00:00:00 6.6 5 Sudoeste 10 Sudoeste 0 -- -- 96
2018-11-21 23:00:00 5.6 0 Calma 5 Sudoeste 0 -- -- 94
2018-11-21 22:00:00 5.8 3 Noroeste 8 Sudoeste 0 -- -- 94
2018-11-21 21:00:00 5.2 3 Sudoeste 5 Sudoeste 0 -- -- 92
2018-11-21 20:00:00 6.4 2 Sur 5 Sudeste 0 -- -- 91
2018-11-21 19:00:00 7.5 0 Calma 16 Sudoeste 0 -- -- 91
2018-11-21 18:00:00 8.8 17 Oeste 36 Oeste 1 -- -- 87
2018-11-21 17:00:00 10.9 4 Sudoeste 19 Oeste 0 -- -- 77
2018-11-21 16:00:00 11.4 10 Sudoeste 36 Sudoeste 0 -- -- 77
2018-11-21 15:00:00 10.8 13 Sudoeste 36 Sudoeste 0.2 -- -- 72
2018-11-21 14:00:00 12.5 13 Oeste 29 Sudoeste 0 -- -- 70
2018-11-21 13:00:00 10.8 13 Sudoeste 23 Sudoeste 0 -- -- 80
2018-11-21 12:00:00 9.5 15 Sudoeste 37 Sudoeste 0 -- -- 84
2018-11-21 11:00:00 9.4 22 Sudoeste 37 Oeste 0 -- -- 83
2018-11-21 10:00:00 8.8 17 Sudoeste 32 Sudoeste 0 -- -- 86
2018-11-21 09:00:00 8.4 14 Sudoeste 29 Sudoeste 0 -- -- 87
2018-11-21 08:00:00 8.7 16 Sudoeste 29 Oeste 0 -- -- 83
2018-11-21 07:00:00 8.5 11 Sudoeste 28 Sudoeste 0 -- -- 87
2018-11-21 06:00:00 8.5 20 Sudoeste 33 Oeste 0 -- -- 88
2018-11-21 05:00:00 8.6 14 Sudoeste 31 Sudoeste 0 -- -- 88
2018-11-21 04:00:00 8.8 15 Sudoeste 29 Sudoeste 0 -- -- 88
2018-11-21 03:00:00 8.7 16 Sudoeste 28 Sudoeste 0 -- -- 89
2018-11-21 02:00:00 8.6 11 Sudoeste 26 Sudoeste 0 -- -- 90
2018-11-21 01:00:00 8.5 11 Sudoeste 24 Sudoeste 0 -- -- 92
2018-11-21 00:00:00 8.6 13 Sudoeste 26 Sudoeste 0 -- -- 92
2018-11-20 23:00:00 9 15 Sudoeste 27 Sudoeste 0 -- -- 89
2018-11-20 22:00:00 9 17 Sudoeste 33 Sudoeste 0 -- -- 87
2018-11-20 21:00:00 9.2 16 Sudoeste 30 Oeste 0 -- -- 85
2018-11-20 20:00:00 9 16 Sudoeste 30 Sudoeste 0 -- -- 84
2018-11-20 19:00:00 9.1 5 Sudoeste 33 Oeste 0 -- -- 87
2018-11-20 18:00:00 9.2 21 Oeste 40 Sudoeste 2 -- -- 90
2018-11-20 17:00:00 11.1 21 Oeste 35 Oeste 0 -- -- 76
2018-11-20 16:00:00 11.9 22 Oeste 39 Oeste 0 -- -- 71
2018-11-20 15:00:00 11.6 12 Oeste 27 Oeste 0 -- -- 84
2018-11-20 14:00:00 9.6 6 Sur 13 Sudoeste 0 -- -- 91
2018-11-20 13:00:00 8.5 5 Sudoeste 24 Oeste 2 -- -- 92
2018-11-20 12:00:00 9.2 14 Oeste 44 Oeste 1.4 -- -- 85
2018-11-20 11:00:00 10.3 17 Sudoeste 32 Sudoeste 0 -- -- 89
2018-11-20 10:00:00 9.9 17 Sudoeste 32 Sudoeste 0 -- -- 89
2018-11-20 09:00:00 9.3 10 Sudoeste 28 Sudoeste 0 -- -- 93
2018-11-20 08:00:00 9.3 16 Sudoeste 31 Sudoeste 0.4 -- -- 93
2018-11-20 07:00:00 9.6 13 Sudoeste 22 Sudoeste 0.2 -- -- 94
2018-11-20 06:00:00 9.7 14 Sudoeste 24 Sudoeste 0.2 -- -- 93
2018-11-20 05:00:00 9.7 8 Sudoeste 21 Oeste 0.2 -- -- 94
2018-11-20 04:00:00 9.8 10 Sudoeste 20 Sudoeste 0 -- -- 92
2018-11-20 03:00:00 9.6 9 Sudoeste 20 Sudoeste 0 -- -- 91
2018-11-20 02:00:00 9.8 9 Sudoeste 21 Sudoeste 0 -- -- 90
2018-11-20 01:00:00 9.9 5 Sudoeste 11 Sudoeste 0.2 -- -- 90
2018-11-20 00:00:00 10.1 4 Sudoeste 9 Sur 0 -- -- 90
2018-11-19 23:00:00 10.2 2 Sudoeste 9 Oeste 0 -- -- 90
2018-11-19 22:00:00 10.6 4 Sudoeste 14 Sudoeste 0 -- -- 87
2018-11-19 21:00:00 10.8 6 Sudoeste 13 Oeste 0 -- -- 84
2018-11-19 20:00:00 10.9 5 Sudoeste 10 Sudoeste 0 -- -- 85
2018-11-19 19:00:00 11.1 2 Sur 6 Sudoeste 0 -- -- 85
2018-11-19 18:00:00 11.6 4 Sudoeste 21 Oeste 0 -- -- 82
2018-11-19 17:00:00 12.5 16 Sudoeste 24 Sudoeste 0 -- -- 76
2018-11-19 16:00:00 13 5 Oeste 11 Oeste 0 -- -- 72
2018-11-19 15:00:00 13.5 8 Oeste 12 Oeste 0 -- -- 68
2018-11-19 14:00:00 13.6 2 Norte 7 Sudeste 0 -- -- 66
2018-11-19 13:00:00 13.1 3 Nordeste 9 Nordeste 0 -- -- 74
2018-11-19 12:00:00 11.5 7 Nordeste 16 Nordeste 0 -- -- 81
2018-11-19 11:00:00 10.3 9 Este 21 Este 0 -- -- 88
2018-11-19 10:00:00 9.5 11 Este 19 Nordeste 0 -- -- 91
2018-11-19 09:00:00 8.8 8 Este 12 Este 0 -- -- 95
2018-11-19 08:00:00 8.4 4 Este 8 Este 0.2 -- -- 95
2018-11-19 07:00:00 8.5 5 Este 14 Este 0.6 -- -- 95
2018-11-19 06:00:00 8.6 4 Este 7 Este 0 -- -- 95
2018-11-19 05:00:00 8.7 3 Este 6 Este 0 -- -- 94
2018-11-19 04:00:00 8.9 4 Este 9 Nordeste 0 -- -- 94
2018-11-19 03:00:00 9.1 7 Nordeste 12 Nordeste 0.6 -- -- 92
2018-11-19 02:00:00 9.1 6 Nordeste 20 Nordeste 0.2 -- -- 90
2018-11-19 01:00:00 9.2 9 Nordeste 16 Nordeste 0 -- -- 89
2018-11-19 00:00:00 9.5 9 Nordeste 20 Sudeste 0.2 -- -- 88
2018-11-18 23:00:00 9.9 9 Este 30 Sudeste 0 -- -- 86
2018-11-18 22:00:00 10 12 Sudeste 25 Sudeste 0.4 -- -- 90
2018-11-18 21:00:00 10.1 5 Nordeste 10 Este 0.8 -- -- 94
2018-11-18 20:00:00 10.1 5 Este 13 Nordeste 0.8 -- -- 93
2018-11-18 19:00:00 10.3 6 Este 12 Nordeste 0.8 -- -- 92
2018-11-18 18:00:00 10.7 6 Nordeste 12 Nordeste 0.4 -- -- 89
2018-11-18 17:00:00 11.3 5 Este 14 Este 0.2 -- -- 84
2018-11-18 16:00:00 12.3 6 Sudeste 25 Sudeste 0.2 -- -- 76
2018-11-18 15:00:00 13.7 11 Sudeste 24 Sudeste 0 -- -- 67
2018-11-18 14:00:00 14.3 11 Sur 32 Sudeste 0 -- -- 65
2018-11-18 13:00:00 14.5 9 Sudeste 25 Sur 0 -- -- 66
2018-11-18 12:00:00 13.4 10 Sudeste 24 Sudeste 0 -- -- 71
2018-11-18 11:00:00 12.3 8 Este 17 Nordeste 0 -- -- 79
2018-11-18 10:00:00 11.1 7 Nordeste 14 Nordeste 0 -- -- 86
2018-11-18 09:00:00 9 3 Nordeste 6 Nordeste 0 -- -- 94
2018-11-18 08:00:00 8.4 0 Calma 4 Este 0 -- -- 93
2018-11-18 07:00:00 8.8 3 Este 10 Este 0 -- -- 91
2018-11-18 06:00:00 9 4 Este 13 Este 0 -- -- 91
2018-11-18 05:00:00 9 0 Calma 6 Sudoeste 0 -- -- 92
2018-11-18 04:00:00 9.2 3 Nordeste 15 Nordeste 0 -- -- 91
2018-11-18 03:00:00 8.5 6 Este 9 Este 0 -- -- 94
2018-11-18 02:00:00 7.8 4 Sudoeste 12 Sur 0 -- -- 93
2018-11-18 01:00:00 7.3 4 Nordeste 15 Sudeste 0 -- -- 93
2018-11-18 00:00:00 7.9 6 Nordeste 10 Nordeste 0 -- -- 92
2018-11-17 23:00:00 8.8 4 Nordeste 12 Nordeste 0 -- -- 91
2018-11-17 22:00:00 10 5 Nordeste 9 Nordeste 0 -- -- 89
2018-11-17 21:00:00 10.6 0 Calma 9 Nordeste 0 -- -- 88
2018-11-17 20:00:00 11.1 2 Este 6 Este 0 -- -- 87
2018-11-17 19:00:00 11.9 3 Nordeste 4 Nordeste 0 -- -- 83
2018-11-17 18:00:00 13.7 0 Calma 6 Este 0 -- -- 77
2018-11-17 17:00:00 15.5 6 Este 9 Este 0 -- -- 70
2018-11-17 16:00:00 15.9 3 Nordeste 6 Norte 0 -- -- 67
2018-11-17 15:00:00 15.9 4 Norte 6 Norte 0 -- -- 66
2018-11-17 14:00:00 15.5 0 Calma 8 Este 0 -- -- 67
2018-11-17 13:00:00 15.2 3 Este 12 Nordeste 0 -- -- 68
2018-11-17 12:00:00 14.2 7 Nordeste 15 Este 0 -- -- 72
2018-11-17 11:00:00 11.9 9 Este 15 Este 0 -- -- 80
2018-11-17 10:00:00 9.2 9 Este 14 Este 0 -- -- 89
2018-11-17 09:00:00 6.9 5 Este 17 Nordeste 0 -- -- 95
2018-11-17 08:00:00 6.5 8 Este 14 Nordeste 0 -- -- 94
2018-11-17 07:00:00 7 9 Nordeste 15 Nordeste 0 -- -- 94
2018-11-17 06:00:00 7.4 6 Este 13 Nordeste 0 -- -- 93
2018-11-17 05:00:00 8 7 Este 15 Este 0 -- -- 91
2018-11-17 04:00:00 9.3 5 Sudeste 11 Sudeste 0 -- -- 88
2018-11-17 03:00:00 10.2 4 Este 7 Este 0 -- -- 86
2018-11-17 02:00:00 11.3 4 Nordeste 13 Nordeste 0 -- -- 83
2018-11-17 01:00:00 11.7 6 Este 13 Nordeste 0 -- -- 83
2018-11-17 00:00:00 10.6 3 Este 9 Este 0 -- -- 90
2018-11-16 23:00:00 11.2 6 Nordeste 12 Nordeste 0 -- -- 90
2018-11-16 22:00:00 11.3 0 Calma 5 Nordeste 0 -- -- 89
2018-11-16 21:00:00 12.3 0 Calma 4 Noroeste 0 -- -- 88
2018-11-16 20:00:00 13.2 0 Calma 2 Nordeste 0 -- -- 85
2018-11-16 19:00:00 14.2 0 Calma 4 Norte 0 -- -- 81
2018-11-16 18:00:00 15.4 3 Norte 7 Norte 0 -- -- 75
2018-11-16 17:00:00 16.6 3 Noroeste 8 Sudoeste 0 -- -- 69
2018-11-16 16:00:00 17 5 Sur 17 Sur 0 -- -- 67
2018-11-16 15:00:00 17.4 13 Sur 25 Sur 0 -- -- 65
2018-11-16 14:00:00 16.7 9 Sur 24 Sudeste 0 -- -- 68
2018-11-16 13:00:00 15.6 0 Calma 8 Noroeste 0 -- -- 70
2018-11-16 12:00:00 14.1 3 Este 8 Este 0 -- -- 80
2018-11-16 11:00:00 13 5 Este 9 Nordeste 0 -- -- 86
2018-11-16 10:00:00 12 3 Este 10 Este 0 -- -- 90
2018-11-16 09:00:00 11.4 8 Este 13 Este 0 -- -- 92
2018-11-16 08:00:00 11.2 9 Este 12 Nordeste 0 -- -- 92
2018-11-16 07:00:00 10.8 4 Este 9 Este 0 -- -- 94
2018-11-16 06:00:00 10.5 4 Este 8 Nordeste 0 -- -- 93
2018-11-16 05:00:00 10.9 4 Este 8 Este 0 -- -- 93
2018-11-16 04:00:00 11.3 3 Nordeste 5 Nordeste 0 -- -- 92
2018-11-16 03:00:00 11.6 3 Este 10 Este 0 -- -- 92
2018-11-16 02:00:00 11.9 6 Este 11 Este 0 -- -- 91
2018-11-16 01:00:00 12 6 Este 9 Este 0 -- -- 90
2018-11-16 00:00:00 12 3 Este 7 Este 0 -- -- 88
2018-11-15 23:00:00 12.7 6 Este 12 Nordeste 0 -- -- 87
2018-11-15 22:00:00 12.1 5 Este 9 Este 0 -- -- 90
2018-11-15 21:00:00 11.7 6 Nordeste 8 Nordeste 0 -- -- 89
2018-11-15 20:00:00 11.7 0 Calma 6 Sudeste 0 -- -- 89
2018-11-15 19:00:00 12.8 6 Nordeste 12 Este 0 -- -- 85
2018-11-15 18:00:00 14.9 0 Calma 9 Oeste 0 -- -- 76
2018-11-15 17:00:00 16.3 6 Sudoeste 20 Sudoeste 0 -- -- 70
2018-11-15 16:00:00 18.2 3 Noroeste 11 Nordeste 0 -- -- 60
2018-11-15 15:00:00 17.3 7 Nordeste 16 Este 0 -- -- 63
2018-11-15 14:00:00 17.7 7 Nordeste 15 Nordeste 0 -- -- 62
2018-11-15 13:00:00 15.9 7 Este 13 Este 0 -- -- 69
2018-11-15 12:00:00 13.8 8 Este 17 Este 0 -- -- 78
2018-11-15 11:00:00 12 6 Este 13 Este 0 -- -- 82
2018-11-15 10:00:00 10.7 4 Este 13 Nordeste 0 -- -- 89
2018-11-15 09:00:00 9.7 9 Este 14 Este 0 -- -- 91
2018-11-15 08:00:00 9 8 Este 14 Este 0 -- -- 92
2018-11-15 07:00:00 9.5 9 Este 16 Este 0 -- -- 92
2018-11-15 06:00:00 9.6 9 Este 13 Este 0 -- -- 94
2018-11-15 05:00:00 9.7 7 Este 13 Este 0 -- -- 94
2018-11-15 04:00:00 9.7 5 Este 9 Este 0 -- -- 92
2018-11-15 03:00:00 10.4 3 Este 8 Sudeste 0 -- -- 93
2018-11-15 02:00:00 10.3 0 Calma 8 Sudeste 0 -- -- 92
2018-11-15 01:00:00 11.3 5 Norte 16 Nordeste 0 -- -- 91
2018-11-15 00:00:00 11.2 6 Nordeste 10 Nordeste 0 -- -- 91
2018-11-14 23:00:00 11.9 0 Calma 9 Nordeste 0 -- -- 90
2018-11-14 22:00:00 12.6 4 Este 14 Nordeste 0 -- -- 88
2018-11-14 21:00:00 12.6 6 Este 9 Este 0.2 -- -- 90
2018-11-14 20:00:00 13 3 Este 5 Sudeste 0.2 -- -- 88
2018-11-14 19:00:00 15 0 Calma 15 Nordeste 0 -- -- 79
2018-11-14 18:00:00 16 11 Nordeste 17 Nordeste 0 -- -- 71
2018-11-14 17:00:00 17.4 0 Calma 14 Nordeste 0 -- -- 65
2018-11-14 16:00:00 17.5 9 Norte 14 Norte 0 -- -- 67
2018-11-14 15:00:00 17.2 4 Este 11 Este 0 -- -- 68
2018-11-14 14:00:00 15.8 6 Nordeste 13 Nordeste 0 -- -- 74
2018-11-14 13:00:00 13.6 6 Este 12 Nordeste 0 -- -- 80
2018-11-14 12:00:00 12.6 8 Este 17 Este 0 -- -- 86
2018-11-14 11:00:00 9.8 10 Este 19 Este 0 -- -- 99
2018-11-14 10:00:00 8.3 12 Este 17 Este 0 -- -- 98
2018-11-14 09:00:00 7.9 9 Este 16 Este 0 -- -- 98
2018-11-14 08:00:00 7.5 7 Este 12 Este 0 -- -- 97
2018-11-14 07:00:00 7.3 9 Este 14 Este 0 -- -- 97
2018-11-14 06:00:00 7.1 11 Este 17 Este 0 -- -- 96
2018-11-14 05:00:00 7.3 5 Este 14 Este 0 -- -- 95
2018-11-14 04:00:00 7.1 5 Este 10 Nordeste 0 -- -- 95
2018-11-14 03:00:00 6.7 2 Este 7 Este 0 -- -- 93
2018-11-14 02:00:00 7.2 4 Este 11 Este 0 -- -- 94
2018-11-14 01:00:00 7.8 3 Nordeste 8 Este 0 -- -- 92
2018-11-14 00:00:00 8.8 6 Este 8 Este 0 -- -- 91
2018-11-13 23:00:00 10.3 2 Este 8 Este 0 -- -- 87
2018-11-13 22:00:00 13 0 Calma 12 Sudoeste 0 -- -- 79
2018-11-13 21:00:00 12.8 4 Sudoeste 10 Sur 0 -- -- 81
2018-11-13 20:00:00 11.6 2 Norte 10 Sur 0 -- -- 88
2018-11-13 19:00:00 12.6 0 Calma 2 Sur 0 -- -- 82
2018-11-13 18:00:00 16.8 0 Calma 3 Sur 0.2 -- -- 70
2018-11-13 17:00:00 19.3 2 Sudoeste 5 Sudoeste 0 -- -- 61
2018-11-13 16:00:00 18.8 2 Oeste 6 Este 0 -- -- 63
2018-11-13 15:00:00 17.2 3 Este 10 Nordeste 0 -- -- 67
2018-11-13 14:00:00 16.2 8 Nordeste 14 Este 0 -- -- 70
2018-11-13 13:00:00 14.7 8 Este 13 Este 0 -- -- 77
2018-11-13 12:00:00 12.2 5 Este 12 Este 0 -- -- 84
2018-11-13 11:00:00 10.2 6 Este 13 Este 0 -- -- 92
2018-11-13 10:00:00 8.5 6 Este 11 Este 0 -- -- 96
2018-11-13 09:00:00 7.1 4 Este 8 Este 0 -- -- 98
2018-11-13 08:00:00 5.3 0 Calma 6 Nordeste 0 -- -- 96
2018-11-13 07:00:00 5.6 0 Calma 3 Nordeste 0 -- -- 95
2018-11-13 06:00:00 6.4 0 Calma 6 Este 0 -- -- 95
2018-11-13 05:00:00 6.9 4 Este 9 Nordeste 0 -- -- 95
2018-11-13 04:00:00 7.5 6 Nordeste 12 Este 0 -- -- 95
2018-11-13 03:00:00 7.3 4 Este 8 Este 0 -- -- 94
2018-11-13 02:00:00 7.6 3 Este 8 Este 0 -- -- 93
2018-11-13 01:00:00 8.3 6 Este 9 Este 0 -- -- 93
2018-11-13 00:00:00 9.1 3 Sudeste 9 Nordeste 0 -- -- 92
2018-11-12 23:00:00 9.7 2 Este 5 Este 0 -- -- 92
2018-11-12 22:00:00 10.4 0 Calma 6 Norte 0 -- -- 89
2018-11-12 21:00:00 11.4 2 Este 4 Este 0 -- -- 88
2018-11-12 20:00:00 12.6 0 Calma 6 Este 0 -- -- 85
2018-11-12 19:00:00 13 2 Nordeste 6 Este 0 -- -- 84
2018-11-12 18:00:00 13.4 6 Este 10 Este 0 -- -- 80
2018-11-12 17:00:00 14.4 6 Este 11 Este 0 -- -- 76
2018-11-12 16:00:00 14.7 0 Calma 8 Nordeste 0 -- -- 75
2018-11-12 15:00:00 14.7 2 Sudoeste 13 Oeste 0 -- -- 74
2018-11-12 14:00:00 13.9 10 Noroeste 20 Oeste 0 -- -- 83
2018-11-12 13:00:00 14.4 11 Oeste 16 Oeste 0 -- -- 80
2018-11-12 12:00:00 13.6 5 Sudoeste 12 Sudoeste 0 -- -- 84
2018-11-12 11:00:00 13.1 6 Oeste 17 Sudoeste 0.2 -- -- 83
2018-11-12 10:00:00 12.7 0 Calma 10 Sur 0 -- -- 82
2018-11-12 09:00:00 11.4 3 Este 8 Nordeste 0 -- -- 87
2018-11-12 08:00:00 10 3 Noroeste 9 Norte 0 -- -- 89
2018-11-12 07:00:00 9.9 2 Sudeste 11 Este 0 -- -- 86
2018-11-12 06:00:00 10.2 2 Este 14 Sur 0 -- -- 84
2018-11-12 05:00:00 10.4 7 Sudoeste 13 Sudoeste 0 -- -- 85
2018-11-12 04:00:00 10.8 6 Sudoeste 19 Sudoeste 0 -- -- 83
2018-11-12 03:00:00 12 10 Sudoeste 29 Sudoeste 0 -- -- 82
2018-11-12 02:00:00 13.2 14 Sudoeste 27 Sur 0 -- -- 76
2018-11-12 01:00:00 13.7 13 Sudoeste 32 Sudoeste 0 -- -- 74
2018-11-12 00:00:00 13.8 16 Sudoeste 34 Sudoeste 0 -- -- 73
2018-11-11 23:00:00 13.9 14 Sur 31 Sudoeste 0 -- -- 76
2018-11-11 22:00:00 14.5 17 Sur 28 Sudoeste 0 -- -- 78
2018-11-11 21:00:00 14.2 8 Sur 19 Sudoeste 0 -- -- 80
2018-11-11 20:00:00 14.3 11 Sur 19 Sur 0 -- -- 79
2018-11-11 19:00:00 14.6 9 Sur 19 Sur 0 -- -- 77
2018-11-11 18:00:00 15.6 12 Sur 24 Sur 0 -- -- 73
2018-11-11 17:00:00 16 7 Sur 21 Sur 0 -- -- 74
2018-11-11 16:00:00 16.7 11 Sur 20 Sur 0 -- -- 71
2018-11-11 15:00:00 16.7 6 Sudoeste 18 Sudoeste 0 -- -- 67
2018-11-11 14:00:00 15.7 7 Sudoeste 24 Sudoeste 0 -- -- 76
2018-11-11 13:00:00 16.9 12 Sudoeste 29 Sudoeste 0 -- -- 72
2018-11-11 12:00:00 15.3 13 Sudoeste 28 Sudoeste 0 -- -- 77
2018-11-11 11:00:00 14.1 13 Sudoeste 24 Sudoeste 0 -- -- 83
2018-11-11 10:00:00 13.4 14 Sudoeste 25 Sudoeste 0 -- -- 86
2018-11-11 09:00:00 13 13 Sudoeste 28 Sudoeste 0 -- -- 89
2018-11-11 08:00:00 12.7 14 Sudoeste 27 Sudoeste 0 -- -- 89
2018-11-11 07:00:00 12.8 11 Sudoeste 30 Sudoeste 0 -- -- 89
2018-11-11 06:00:00 12.9 19 Sudoeste 33 Sudoeste 0 -- -- 90
2018-11-11 05:00:00 13.1 15 Sudoeste 36 Sudoeste 0 -- -- 88
2018-11-11 04:00:00 12.8 15 Sudoeste 31 Sudoeste 0 -- -- 91
2018-11-11 03:00:00 12.3 10 Sudoeste 21 Sudoeste 0 -- -- 93
2018-11-11 02:00:00 12.4 12 Sudoeste 22 Sudoeste 0 -- -- 91
2018-11-11 01:00:00 12.8 7 Sudoeste 24 Sudoeste 0 -- -- 90
2018-11-11 00:00:00 12.8 15 Sudoeste 28 Sudoeste 0 -- -- 90
2018-11-10 23:00:00 12.7 13 Sudoeste 29 Sudoeste 0 -- -- 90
2018-11-10 22:00:00 12.6 17 Sudoeste 38 Sudoeste 0 -- -- 92
2018-11-10 21:00:00 12.6 12 Sudoeste 30 Sudoeste 0.2 -- -- 92
2018-11-10 20:00:00 13.1 13 Sudoeste 32 Oeste 0 -- -- 89
2018-11-10 19:00:00 12.9 12 Sudoeste 33 Sudoeste 0 -- -- 89
2018-11-10 18:00:00 13 21 Sudoeste 41 Sudoeste 0 -- -- 88
2018-11-10 17:00:00 13.2 17 Sudoeste 38 Sudoeste 0 -- -- 85
2018-11-10 16:00:00 13.3 18 Sudoeste 40 Sudoeste 0 -- -- 83
2018-11-10 15:00:00 13.4 20 Sudoeste 39 Sudoeste 0 -- -- 82
2018-11-10 14:00:00 13.3 15 Sudoeste 34 Sudoeste 0 -- -- 80
2018-11-10 13:00:00 13.5 21 Sudoeste 36 Sudoeste 0 -- -- 79
2018-11-10 12:00:00 12.6 13 Sudoeste 34 Sudoeste 0 -- -- 80
2018-11-10 11:00:00 12.1 14 Sudoeste 35 Oeste 0 -- -- 82
2018-11-10 10:00:00 11.7 21 Sudoeste 36 Sudoeste 0 -- -- 82
2018-11-10 09:00:00 11.2 18 Sudoeste 32 Sur 0 -- -- 84
2018-11-10 08:00:00 10.8 14 Sudoeste 29 Sudoeste 0 -- -- 86
2018-11-10 07:00:00 10.7 17 Sudoeste 34 Sudoeste 0 -- -- 87
2018-11-10 06:00:00 10.2 14 Sudoeste 26 Oeste 0 -- -- 88
2018-11-10 05:00:00 10.1 15 Sudoeste 31 Sudoeste 0 -- -- 88
2018-11-10 04:00:00 10 10 Sudoeste 34 Sudoeste 0 -- -- 86
2018-11-10 03:00:00 10 15 Sudoeste 29 Sudoeste 0 -- -- 87
2018-11-10 02:00:00 10 14 Sudoeste 33 Oeste 0 -- -- 86
2018-11-10 01:00:00 9.9 21 Sudoeste 33 Sudoeste 0 -- -- 85
2018-11-10 00:00:00 9.7 14 Sudoeste 27 Sudoeste 0 -- -- 85
2018-11-09 23:00:00 9.7 16 Sudoeste 27 Sudoeste 0 -- -- 84
2018-11-09 22:00:00 9.6 11 Sudoeste 21 Sudoeste 0 -- -- 81
2018-11-09 21:00:00 9.7 8 Sudoeste 19 Sudoeste 0 -- -- 77
2018-11-09 20:00:00 10 8 Sudoeste 18 Sudoeste 0 -- -- 74
2018-11-09 19:00:00 10.4 11 Sudoeste 24 Sudoeste 0 -- -- 72
2018-11-09 18:00:00 11 7 Sudoeste 23 Sudoeste 0 -- -- 64
2018-11-09 17:00:00 12.9 12 Sudoeste 25 Oeste 0 -- -- 57
2018-11-09 16:00:00 13.6 17 Oeste 33 Oeste 0 -- -- 50
2018-11-09 15:00:00 13.7 18 Oeste 32 Oeste 0 -- -- 49
2018-11-09 14:00:00 13 17 Oeste 31 Oeste 0 -- -- 53
2018-11-09 13:00:00 11.9 10 Oeste 17 Sudoeste 0 -- -- 62
2018-11-09 12:00:00 10.6 6 Noroeste 16 Sudoeste 0 -- -- 63
2018-11-09 11:00:00 9.9 9 Oeste 21 Oeste 0 -- -- 72
2018-11-09 10:00:00 8.3 7 Oeste 12 Sudoeste 0 -- -- 82
2018-11-09 09:00:00 6.4 5 Sudoeste 9 Oeste 0 -- -- 89
2018-11-09 08:00:00 5 0 Calma 4 Sudoeste 0 -- -- 93
2018-11-09 07:00:00 4.7 0 Calma 5 Sudoeste 0 -- -- 93
2018-11-09 06:00:00 4.1 2 Sur 4 Sur 0 -- -- 91
2018-11-09 05:00:00 4.7 2 Sur 13 Sudoeste 0 -- -- 86
2018-11-09 04:00:00 6.2 9 Sudoeste 18 Oeste 0 -- -- 82
2018-11-09 03:00:00 6.6 3 Oeste 11 Oeste 0 -- -- 86
2018-11-09 02:00:00 6.8 4 Sudoeste 14 Oeste 0 -- -- 86
2018-11-09 01:00:00 7.6 8 Oeste 24 Sudoeste 0 -- -- 92
2018-11-09 00:00:00 8.4 11 Sudoeste 25 Sudoeste 0 -- -- 92